Time;durP1;ratioP1;P1;durP2;ratioP2;P2;SDS_P1;SDS_P2;PMS_P1;PMS_P2;Temp;Humidity;BMP_temperature;BMP_pressure;BME280_temperature;BME280_humidity;BME280_pressure;Samples;Min_cycle;Max_cycle;Signal;HPM_P1;HPM_P2
2023/10/04 00:02:02;;;;;;;17.67;4.20;;;13.90;99.90;;;;;;5213918;28;20458;-52
2023/10/04 00:04:34;;;;;;;9.37;2.13;;;13.80;99.90;;;;;;5224115;28;20183;-52
2023/10/04 00:07:07;;;;;;;2.40;1.70;;;13.70;99.90;;;;;;5222144;28;20614;-62
2023/10/04 00:09:37;;;;;;;3.13;1.90;;;13.60;99.90;;;;;;5222760;28;20429;-53
2023/10/04 00:12:08;;;;;;;4.40;2.10;;;13.50;99.90;;;;;;5222070;28;20456;-52
2023/10/04 00:14:39;;;;;;;2.50;1.60;;;13.40;99.90;;;;;;5220603;28;20709;-52
2023/10/04 00:17:09;;;;;;;3.80;2.10;;;13.40;99.90;;;;;;5217762;28;20178;-52
2023/10/04 00:19:40;;;;;;;5.37;2.47;;;13.40;99.90;;;;;;5221265;28;20610;-50
2023/10/04 00:22:11;;;;;;;3.77;2.30;;;13.40;99.90;;;;;;5217666;28;20203;-51
2023/10/04 00:24:42;;;;;;;3.30;2.50;;;13.40;99.90;;;;;;5212133;28;20285;-51
2023/10/04 00:27:12;;;;;;;3.33;2.13;;;13.50;99.90;;;;;;5218719;28;20970;-52
2023/10/04 00:29:44;;;;;;;9.50;2.37;;;13.50;99.90;;;;;;5225902;28;20175;-51
2023/10/04 00:32:15;;;;;;;3.20;2.20;;;13.50;99.90;;;;;;5220471;28;20207;-50
2023/10/04 00:34:45;;;;;;;2.87;2.20;;;13.40;99.90;;;;;;5222447;28;20449;-50
2023/10/04 00:37:16;;;;;;;9.20;2.40;;;13.30;99.90;;;;;;5218131;28;20445;-51
2023/10/04 00:39:47;;;;;;;4.10;1.93;;;13.10;99.90;;;;;;5228007;28;20208;-51
2023/10/04 00:42:19;;;;;;;5.63;2.00;;;13.10;99.90;;;;;;5218080;28;20670;-51
2023/10/04 00:44:51;;;;;;;3.80;1.83;;;13.10;99.90;;;;;;5216942;28;20488;-51
2023/10/04 00:47:22;;;;;;;6.60;2.30;;;13.10;99.90;;;;;;5223529;28;20445;-52
2023/10/04 00:49:52;;;;;;;11.93;1.87;;;13.10;99.90;;;;;;5224512;28;20452;-50
2023/10/04 00:52:23;;;;;;;6.90;2.07;;;13.10;99.90;;;;;;5221916;28;20528;-53
2023/10/04 00:54:54;;;;;;;5.33;2.13;;;13.10;99.90;;;;;;5218699;28;20230;-51
2023/10/04 00:57:25;;;;;;;3.93;2.40;;;13.10;99.90;;;;;;5218081;28;20179;-52
2023/10/04 00:59:56;;;;;;;6.60;3.20;;;13.00;99.90;;;;;;5233275;28;20662;-51
2023/10/04 01:02:28;;;;;;;3.90;2.10;;;12.90;99.90;;;;;;5215734;28;20481;-52
2023/10/04 01:04:59;;;;;;;9.93;2.23;;;12.80;99.90;;;;;;5214821;28;20183;-51
2023/10/04 01:07:31;;;;;;;5.57;2.60;;;12.70;99.90;;;;;;5221970;28;20437;-53
2023/10/04 01:10:02;;;;;;;8.40;2.00;;;12.80;99.90;;;;;;5226959;28;20421;-52
2023/10/04 01:12:33;;;;;;;3.43;1.73;;;12.70;99.90;;;;;;5223392;28;20968;-52
2023/10/04 01:15:25;;;;;;;10.60;3.07;;;12.70;99.90;;;;;;5212951;28;20827;-50
2023/10/04 01:17:57;;;;;;;3.60;2.27;;;12.70;99.90;;;;;;5213963;28;20961;-51
2023/10/04 01:20:30;;;;;;;6.10;2.80;;;12.70;99.90;;;;;;5212001;28;20531;-50
2023/10/04 01:23:02;;;;;;;6.43;2.00;;;12.70;99.90;;;;;;5221721;28;20437;-51
2023/10/04 01:25:34;;;;;;;5.27;2.30;;;12.80;99.90;;;;;;5219999;28;20441;-51
2023/10/04 01:28:14;;;;;;;10.07;2.87;;;12.70;99.90;;;;;;5234081;28;20418;-50
2023/10/04 01:30:47;;;;;;;3.03;2.30;;;12.70;99.90;;;;;;5213644;28;20457;-51
2023/10/04 01:33:18;;;;;;;7.73;2.10;;;12.70;99.90;;;;;;5215134;28;20545;-51
2023/10/04 01:35:54;;;;;;;5.90;2.70;;;12.70;99.90;;;;;;5215502;28;20465;-51
2023/10/04 01:38:25;;;;;;;6.70;2.53;;;12.70;99.90;;;;;;5212386;28;20519;-51
2023/10/04 01:40:56;;;;;;;14.53;2.27;;;12.70;99.90;;;;;;5221741;28;20796;-51
2023/10/04 01:43:27;;;;;;;6.13;2.23;;;12.70;99.90;;;;;;5222177;28;21053;-50
2023/10/04 01:45:59;;;;;;;3.03;1.77;;;12.60;99.90;;;;;;5216262;28;20517;-51
2023/10/04 01:48:36;;;;;;;5.87;2.33;;;12.60;99.90;;;;;;5215606;28;20189;-51
2023/10/04 01:51:07;;;;;;;4.63;1.60;;;12.60;99.90;;;;;;5212463;28;20540;-52
2023/10/04 01:53:38;;;;;;;3.33;2.40;;;12.50;99.90;;;;;;5216839;28;20532;-52
2023/10/04 01:56:08;;;;;;;9.37;2.60;;;12.50;99.90;;;;;;5215951;28;20182;-51
2023/10/04 01:58:39;;;;;;;5.93;2.20;;;12.50;99.90;;;;;;5210967;28;20651;-51
2023/10/04 02:01:09;;;;;;;9.33;4.30;;;12.50;99.90;;;;;;5219590;28;20276;-53
2023/10/04 02:03:40;;;;;;;5.63;2.40;;;12.50;99.90;;;;;;5216080;28;20302;-51
2023/10/04 02:06:11;;;;;;;3.70;2.33;;;12.50;99.90;;;;;;5213804;28;20875;-53
2023/10/04 02:08:44;;;;;;;6.67;2.50;;;12.50;99.90;;;;;;5222196;28;20175;-51
2023/10/04 02:11:14;;;;;;;3.47;2.20;;;12.40;99.90;;;;;;5213279;28;20476;-51
2023/10/04 02:13:45;;;;;;;6.43;2.20;;;12.40;99.90;;;;;;5218406;28;20457;-51
2023/10/04 02:16:18;;;;;;;7.90;2.50;;;12.40;99.90;;;;;;5221256;28;20178;-52
2023/10/04 02:18:48;;;;;;;7.30;2.50;;;12.30;99.90;;;;;;5235567;28;20658;-51
2023/10/04 02:21:20;;;;;;;7.87;2.13;;;12.30;99.90;;;;;;5211893;28;20482;-52
2023/10/04 02:23:51;;;;;;;4.53;2.33;;;12.30;99.90;;;;;;5213829;28;20184;-50
2023/10/04 02:26:22;;;;;;;5.97;2.93;;;12.30;99.90;;;;;;5220786;28;20442;-52
2023/10/04 02:28:54;;;;;;;5.33;2.20;;;12.30;99.90;;;;;;5212149;28;20216;-51
2023/10/04 02:31:24;;;;;;;4.47;2.23;;;12.40;99.90;;;;;;5218613;28;20460;-53
2023/10/04 02:33:57;;;;;;;15.17;3.57;;;12.40;99.90;;;;;;5219447;28;20453;-51
2023/10/04 02:36:27;;;;;;;5.23;2.27;;;12.50;99.90;;;;;;5219208;28;20190;-51
2023/10/04 02:38:58;;;;;;;4.87;2.60;;;12.60;99.90;;;;;;5211855;28;20958;-51
2023/10/04 02:41:29;;;;;;;5.67;2.33;;;12.60;99.90;;;;;;5216546;28;20194;-51
2023/10/04 02:44:03;;;;;;;4.90;2.13;;;12.60;99.90;;;;;;5215998;28;20266;-52
2023/10/04 02:46:34;;;;;;;8.83;2.43;;;12.60;99.90;;;;;;5217202;28;20187;-52
2023/10/04 02:49:08;;;;;;;6.30;2.43;;;12.60;99.90;;;;;;5219725;28;20432;-50
2023/10/04 02:51:39;;;;;;;6.70;2.90;;;12.60;99.90;;;;;;5216705;28;20201;-51
2023/10/04 02:54:10;;;;;;;6.90;3.30;;;12.50;99.90;;;;;;5213021;28;20465;-51
2023/10/04 02:56:45;;;;;;;7.93;3.10;;;12.50;99.90;;;;;;5226147;28;20648;-51
2023/10/04 02:59:17;;;;;;;3.17;2.07;;;12.40;99.90;;;;;;5215617;28;20597;-51
2023/10/04 03:01:47;;;;;;;6.30;2.90;;;12.50;99.90;;;;;;5216976;28;20498;-52
2023/10/04 03:04:20;;;;;;;14.93;3.03;;;12.40;99.90;;;;;;5218385;28;20829;-51
2023/10/04 03:06:52;;;;;;;4.80;2.43;;;12.30;99.90;;;;;;5209381;28;20522;-51
2023/10/04 03:09:24;;;;;;;4.57;2.87;;;12.30;99.90;;;;;;5219489;28;20445;-52
2023/10/04 03:11:55;;;;;;;5.70;3.60;;;12.30;99.90;;;;;;5217909;28;20465;-51
2023/10/04 03:14:25;;;;;;;5.47;2.70;;;12.30;99.90;;;;;;5214890;28;20475;-52
2023/10/04 03:16:58;;;;;;;6.53;3.10;;;12.30;99.90;;;;;;5210318;28;20187;-52
2023/10/04 03:19:29;;;;;;;4.80;2.80;;;12.30;99.90;;;;;;5219392;28;20537;-51
2023/10/04 03:21:59;;;;;;;6.33;2.87;;;12.40;99.90;;;;;;5222663;28;20495;-51
2023/10/04 03:24:30;;;;;;;4.97;3.27;;;12.40;99.90;;;;;;5210111;28;20198;-51
2023/10/04 03:27:01;;;;;;;7.40;3.37;;;12.30;99.90;;;;;;5229550;28;20527;-51
2023/10/04 03:29:31;;;;;;;5.03;3.40;;;12.30;99.90;;;;;;5221260;28;20221;-51
2023/10/04 03:32:09;;;;;;;7.50;3.50;;;12.30;99.90;;;;;;5214373;28;20754;-51
2023/10/04 03:34:40;;;;;;;6.90;3.40;;;12.20;99.90;;;;;;5208650;28;20226;-50
2023/10/04 03:37:14;;;;;;;7.67;3.57;;;12.20;99.90;;;;;;5219768;28;20429;-51
2023/10/04 03:39:45;;;;;;;5.87;3.43;;;12.20;99.90;;;;;;5216401;28;20476;-51
2023/10/04 03:42:16;;;;;;;6.13;3.60;;;12.20;99.90;;;;;;5224789;28;20449;-51
2023/10/04 03:44:47;;;;;;;6.10;3.57;;;12.20;99.90;;;;;;5224688;28;20499;-53
2023/10/04 03:47:20;;;;;;;7.83;3.53;;;12.20;99.90;;;;;;5234575;28;20191;-51
2023/10/04 03:49:51;;;;;;;4.50;4.07;;;12.20;99.90;;;;;;5226473;28;20529;-51
2023/10/04 03:52:23;;;;;;;5.70;4.07;;;12.30;99.90;;;;;;5211836;28;20502;-52
2023/10/04 03:54:54;;;;;;;6.87;3.40;;;12.40;99.90;;;;;;5218211;28;20293;-50
2023/10/04 03:57:25;;;;;;;24.20;4.03;;;12.30;99.90;;;;;;5222068;28;20953;-52
2023/10/04 03:59:58;;;;;;;10.47;3.60;;;12.30;99.90;;;;;;5216567;28;20472;-52
2023/10/04 04:02:28;;;;;;;13.83;4.20;;;12.30;99.90;;;;;;5226174;28;20344;-51
2023/10/04 04:04:59;;;;;;;4.87;3.80;;;12.30;99.90;;;;;;5218410;28;20445;-52
2023/10/04 04:07:29;;;;;;;8.17;4.37;;;12.30;99.90;;;;;;5224189;28;20226;-51
2023/10/04 04:10:03;;;;;;;4.00;3.60;;;12.30;99.90;;;;;;5205448;28;20543;-51
2023/10/04 04:12:40;;;;;;;10.47;3.10;;;12.30;99.90;;;;;;5223858;28;20194;-51
2023/10/04 04:15:10;;;;;;;4.80;3.70;;;12.30;99.90;;;;;;5241462;28;20467;-51
2023/10/04 04:17:41;;;;;;;9.93;4.07;;;12.40;99.90;;;;;;5223527;28;20434;-51
2023/10/04 04:20:16;;;;;;;5.87;3.40;;;12.30;99.90;;;;;;5218946;28;20696;-56
2023/10/04 04:22:53;;;;;;;6.20;3.77;;;12.30;99.90;;;;;;5222480;28;20180;-53
2023/10/04 04:25:26;;;;;;;8.07;3.80;;;12.30;99.90;;;;;;5218580;28;20972;-51
2023/10/04 04:27:56;;;;;;;4.13;3.60;;;12.40;99.90;;;;;;5221117;28;20572;-52
2023/10/04 04:30:31;;;;;;;6.87;3.27;;;12.30;99.90;;;;;;5217136;28;20489;-50
2023/10/04 04:33:08;;;;;;;3.87;3.20;;;12.30;99.90;;;;;;5218543;28;20186;-51
2023/10/04 04:40:54;;;;;;;7.80;4.33;;;12.30;99.90;;;;;;5225728;28;20441;-53
2023/10/04 04:43:30;;;;;;;8.77;4.50;;;12.30;99.90;;;;;;5214652;28;20921;-52
2023/10/04 04:46:06;;;;;;;12.53;3.77;;;12.30;99.90;;;;;;5217915;28;20817;-52
2023/10/04 04:48:37;;;;;;;8.03;3.17;;;12.40;99.90;;;;;;5212325;28;20448;-50
2023/10/04 04:51:12;;;;;;;10.70;4.10;;;12.30;99.90;;;;;;5230766;28;20466;-51
2023/10/04 04:53:48;;;;;;;4.27;3.60;;;12.30;99.90;;;;;;5194604;28;20183;-51
2023/10/04 04:56:21;;;;;;;13.10;4.50;;;12.30;99.90;;;;;;5208477;28;20518;-51
2023/10/04 04:58:52;;;;;;;7.70;4.23;;;12.20;99.90;;;;;;5209782;28;20976;-51
2023/10/04 05:01:23;;;;;;;7.73;3.67;;;12.20;99.90;;;;;;5219955;28;20501;-54
2023/10/04 05:03:54;;;;;;;5.40;3.93;;;12.20;99.90;;;;;;5217898;28;20232;-52
2023/10/04 05:06:24;;;;;;;9.73;3.50;;;12.20;99.90;;;;;;5216686;28;20438;-52
2023/10/04 05:08:56;;;;;;;10.70;3.27;;;12.20;99.90;;;;;;5217620;28;20187;-52
2023/10/04 05:11:27;;;;;;;6.10;3.60;;;12.20;99.90;;;;;;5220954;28;20457;-52
2023/10/04 05:13:58;;;;;;;9.10;3.90;;;12.20;99.90;;;;;;5224034;28;20475;-52
2023/10/04 05:16:30;;;;;;;5.10;3.30;;;12.20;99.90;;;;;;5222258;28;20210;-52
2023/10/04 05:19:00;;;;;;;8.73;4.20;;;12.20;99.90;;;;;;5216134;28;20870;-52
2023/10/04 05:21:31;;;;;;;7.47;3.73;;;12.20;99.90;;;;;;5216875;28;20465;-53
2023/10/04 05:24:03;;;;;;;5.53;3.30;;;12.20;99.90;;;;;;5217136;28;20190;-52
2023/10/04 05:26:35;;;;;;;11.93;3.20;;;12.30;99.90;;;;;;5214337;28;20194;-52
2023/10/04 05:29:07;;;;;;;6.83;3.00;;;12.40;99.90;;;;;;5224758;28;20445;-51
2023/10/04 05:31:37;;;;;;;4.20;3.20;;;12.40;99.90;;;;;;5221250;28;20449;-52
2023/10/04 05:34:08;;;;;;;9.43;3.23;;;12.60;99.90;;;;;;5214566;28;20468;-53
2023/10/04 05:36:39;;;;;;;4.57;3.00;;;12.60;99.90;;;;;;5217952;28;20262;-53
2023/10/04 05:39:13;;;;;;;12.00;3.77;;;12.70;99.90;;;;;;5223130;28;20643;-52
2023/10/04 05:41:45;;;;;;;5.40;3.13;;;12.80;99.90;;;;;;5238750;28;20268;-52
2023/10/04 05:44:15;;;;;;;8.10;3.13;;;12.80;99.90;;;;;;5223726;28;20470;-50
2023/10/04 05:46:46;;;;;;;4.53;3.13;;;12.90;99.90;;;;;;5215332;28;20849;-52
2023/10/04 05:49:17;;;;;;;6.97;2.93;;;13.00;99.90;;;;;;5216574;28;20270;-51
2023/10/04 05:51:48;;;;;;;4.23;2.57;;;13.00;99.90;;;;;;5222966;28;20541;-51
2023/10/04 05:54:19;;;;;;;6.73;2.80;;;13.10;99.90;;;;;;5223226;28;20207;-51
2023/10/04 05:56:50;;;;;;;7.60;3.40;;;13.20;99.90;;;;;;5213753;28;20263;-51
2023/10/04 05:59:20;;;;;;;4.20;3.30;;;13.30;99.90;;;;;;5211310;28;20571;-52
2023/10/04 06:01:51;;;;;;;3.50;2.27;;;13.30;99.90;;;;;;5237990;28;20264;-53
2023/10/04 06:04:22;;;;;;;4.33;2.83;;;13.40;99.90;;;;;;5211578;28;20190;-53
2023/10/04 06:06:54;;;;;;;4.10;2.90;;;13.50;99.90;;;;;;5219171;28;20262;-51
2023/10/04 06:09:29;;;;;;;5.80;2.90;;;13.60;99.90;;;;;;5219349;28;20442;-52
2023/10/04 06:12:01;;;;;;;8.63;2.77;;;13.70;99.90;;;;;;5219640;28;20472;-54
2023/10/04 06:14:32;;;;;;;9.60;3.67;;;13.90;99.90;;;;;;5224395;28;20480;-52
2023/10/04 06:17:04;;;;;;;7.67;3.10;;;14.10;99.90;;;;;;5221503;28;20418;-52
2023/10/04 06:19:36;;;;;;;4.43;2.60;;;14.20;99.90;;;;;;5218094;28;20191;-51
2023/10/04 06:22:07;;;;;;;6.40;2.37;;;14.50;99.90;;;;;;5209181;28;20813;-53
2023/10/04 06:24:39;;;;;;;7.27;2.43;;;14.80;99.90;;;;;;5214873;28;20433;-53
2023/10/04 06:27:09;;;;;;;14.43;2.40;;;14.90;99.90;;;;;;5212263;28;20190;-53
2023/10/04 06:29:40;;;;;;;4.17;2.60;;;15.60;99.90;;;;;;5222390;28;20437;-54
2023/10/04 06:32:12;;;;;;;6.60;2.50;;;16.30;99.90;;;;;;5217406;28;20207;-53
2023/10/04 06:34:42;;;;;;;6.10;3.10;;;16.20;99.90;;;;;;5214302;28;20211;-51
2023/10/04 06:37:13;;;;;;;5.27;2.70;;;16.10;99.90;;;;;;5212839;28;20449;-53
2023/10/04 06:39:43;;;;;;;3.03;2.07;;;15.80;99.90;;;;;;5215779;28;20206;-52
2023/10/04 06:42:14;;;;;;;6.10;3.00;;;16.00;99.90;;;;;;5215142;28;20328;-52
2023/10/04 06:44:45;;;;;;;4.53;3.30;;;16.50;99.90;;;;;;5214027;28;20193;-53
2023/10/04 06:47:17;;;;;;;7.00;2.43;;;17.20;99.90;;;;;;5215111;28;20201;-52
2023/10/04 06:49:48;;;;;;;5.83;3.13;;;17.30;99.90;;;;;;5212922;28;20421;-51
2023/10/04 06:52:18;;;;;;;5.37;2.60;;;17.30;99.90;;;;;;5214712;28;20555;-52
2023/10/04 06:54:49;;;;;;;3.70;3.40;;;17.80;99.90;;;;;;5214906;28;20222;-51
2023/10/04 06:57:20;;;;;;;6.73;2.70;;;19.20;99.90;;;;;;5210444;28;20179;-53
2023/10/04 06:59:51;;;;;;;5.43;3.00;;;20.20;99.90;;;;;;5212233;28;20198;-52
2023/10/04 07:02:21;;;;;;;5.40;2.57;;;20.40;99.90;;;;;;5215146;28;20213;-54
2023/10/04 07:04:52;;;;;;;3.73;2.10;;;19.90;99.90;;;;;;5212851;28;20191;-52
2023/10/04 07:07:23;;;;;;;7.60;2.70;;;19.30;99.90;;;;;;5214717;28;20202;-53
2023/10/04 07:09:57;;;;;;;6.80;3.10;;;18.40;99.90;;;;;;5218487;28;20513;-54
2023/10/04 07:12:28;;;;;;;6.07;2.87;;;18.20;99.90;;;;;;5220984;28;20217;-51
2023/10/04 07:14:58;;;;;;;9.17;2.77;;;18.30;99.90;;;;;;5218024;28;20619;-52
2023/10/04 07:17:30;;;;;;;7.57;2.13;;;18.00;99.90;;;;;;5218427;28;20996;-54
2023/10/04 07:20:01;;;;;;;10.13;3.47;;;17.70;99.90;;;;;;5219625;28;20186;-52
2023/10/04 07:22:32;;;;;;;3.10;2.83;;;17.40;99.90;;;;;;5216865;28;20437;-52
2023/10/04 07:25:03;;;;;;;6.47;3.00;;;17.10;99.90;;;;;;5222093;28;20195;-51
2023/10/04 07:27:35;;;;;;;8.17;2.60;;;17.10;99.90;;;;;;5214175;28;20877;-52
2023/10/04 07:30:07;;;;;;;8.10;2.23;;;17.40;99.90;;;;;;5216845;28;20440;-54
2023/10/04 07:32:37;;;;;;;11.90;2.80;;;17.50;99.90;;;;;;5219406;28;20437;-52
2023/10/04 07:35:15;;;;;;;6.20;2.50;;;17.90;99.90;;;;;;5220608;28;20452;-53
2023/10/04 07:37:47;;;;;;;14.63;4.13;;;18.10;99.90;;;;;;5218147;28;20215;-50
2023/10/04 07:40:17;;;;;;;2.40;2.13;;;17.80;99.90;;;;;;5218539;28;20481;-52
2023/10/04 07:42:52;;;;;;;4.67;2.60;;;17.30;99.90;;;;;;5221288;28;20468;-50
2023/10/04 07:45:28;;;;;;;9.30;3.00;;;17.20;99.90;;;;;;5220104;28;20283;-52
2023/10/04 07:47:59;;;;;;;5.00;2.37;;;17.20;99.90;;;;;;5218892;28;20797;-52
2023/10/04 07:50:31;;;;;;;6.33;2.90;;;17.00;99.90;;;;;;5219802;28;20508;-53
2023/10/04 07:53:04;;;;;;;5.23;2.77;;;16.80;99.90;;;;;;5220247;28;20208;-53
2023/10/04 07:55:36;;;;;;;6.73;2.93;;;16.70;99.90;;;;;;5224693;28;21000;-52
2023/10/04 07:58:09;;;;;;;6.23;2.70;;;16.70;99.90;;;;;;5219414;28;20872;-53
2023/10/04 08:00:41;;;;;;;7.13;2.40;;;16.50;99.90;;;;;;5214205;28;20487;-51
2023/10/04 08:03:11;;;;;;;15.83;5.23;;;16.70;99.90;;;;;;5215351;28;21171;-51
2023/10/04 08:05:42;;;;;;;6.37;4.37;;;16.80;99.90;;;;;;5215617;28;20422;-51
2023/10/04 08:08:13;;;;;;;11.00;3.23;;;16.70;99.90;;;;;;5219003;28;20230;-52
2023/10/04 08:10:44;;;;;;;4.30;2.30;;;16.80;99.90;;;;;;5215757;28;20206;-52
2023/10/04 08:13:16;;;;;;;4.97;3.00;;;16.80;99.90;;;;;;5216779;28;20530;-52
2023/10/04 08:15:46;;;;;;;6.17;3.27;;;17.00;99.90;;;;;;5215598;28;20503;-52
2023/10/04 08:18:18;;;;;;;5.23;2.40;;;17.10;99.90;;;;;;5217577;28;20445;-53
2023/10/04 08:20:49;;;;;;;10.57;2.23;;;17.00;99.90;;;;;;5219599;28;20233;-51
2023/10/04 08:23:21;;;;;;;4.57;2.87;;;17.00;99.90;;;;;;5217730;28;20438;-52
2023/10/04 08:25:52;;;;;;;4.53;3.10;;;17.00;99.90;;;;;;5217622;28;20191;-53
2023/10/04 08:28:22;;;;;;;4.77;2.60;;;17.00;99.90;;;;;;5218384;28;20925;-53
2023/10/04 08:30:53;;;;;;;2.47;2.27;;;17.10;99.90;;;;;;5218149;28;20227;-51
2023/10/04 08:33:31;;;;;;;4.73;2.60;;;17.00;99.90;;;;;;5217019;28;20207;-51
2023/10/04 08:36:08;;;;;;;18.13;3.23;;;17.10;99.90;;;;;;5215884;28;20306;-51
2023/10/04 08:38:41;;;;;;;8.60;2.50;;;17.10;99.90;;;;;;5230230;28;20429;-50
2023/10/04 08:41:12;;;;;;;7.63;2.60;;;16.80;99.90;;;;;;5217700;28;20485;-53
2023/10/04 08:43:47;;;;;;;7.43;2.07;;;16.90;99.90;;;;;;5217466;28;20788;-52
2023/10/04 08:46:20;;;;;;;12.33;3.43;;;16.90;99.90;;;;;;5216823;28;20461;-53
2023/10/04 08:48:53;;;;;;;8.23;4.87;;;17.00;99.90;;;;;;5214978;28;20960;-52
2023/10/04 08:51:50;;;;;;;7.20;2.83;;;17.00;99.90;;;;;;5216523;28;20541;-51
2023/10/04 08:54:22;;;;;;;10.80;2.43;;;16.90;99.90;;;;;;5236093;28;21054;-52
2023/10/04 08:57:14;;;;;;;5.10;2.40;;;16.90;99.90;;;;;;5216904;28;20797;-51
2023/10/04 08:59:45;;;;;;;23.20;2.63;;;16.80;99.90;;;;;;5212667;28;20442;-50
2023/10/04 09:02:18;;;;;;;7.43;2.57;;;17.00;99.90;;;;;;5228691;28;20512;-52
2023/10/04 09:04:50;;;;;;;8.87;3.17;;;17.10;99.90;;;;;;5216918;28;20613;-51
2023/10/04 09:07:21;;;;;;;27.27;4.30;;;17.10;99.90;;;;;;5220734;28;20432;-52
2023/10/04 09:09:56;;;;;;;11.03;3.30;;;17.30;99.90;;;;;;5221231;28;20524;-53
2023/10/04 09:12:27;;;;;;;19.77;3.77;;;17.30;99.90;;;;;;5216460;28;20528;-50
2023/10/04 09:14:58;;;;;;;25.10;4.27;;;17.10;99.90;;;;;;5221256;28;20548;-51
2023/10/04 09:17:42;;;;;;;9.67;3.93;;;17.10;99.90;;;;;;5214455;28;20679;-52
2023/10/04 09:20:17;;;;;;;7.90;2.80;;;17.00;99.90;;;;;;5216561;28;20699;-52
2023/10/04 09:22:47;;;;;;;5.20;2.80;;;16.80;99.90;;;;;;5214607;28;20428;-52
2023/10/04 09:25:19;;;;;;;46.67;5.63;;;16.90;99.90;;;;;;5216439;28;20464;-52
2023/10/04 09:27:55;;;;;;;20.10;3.37;;;16.90;99.90;;;;;;5213817;28;20545;-51
2023/10/04 09:30:25;;;;;;;56.67;6.03;;;16.90;99.90;;;;;;5214624;28;20559;-52
2023/10/04 09:32:56;;;;;;;32.83;4.43;;;16.80;99.90;;;;;;5215563;28;21169;-51
2023/10/04 09:35:53;;;;;;;9.53;3.83;;;16.70;99.90;;;;;;5216543;28;20222;-51
2023/10/04 09:38:29;;;;;;;11.00;3.10;;;16.80;99.90;;;;;;5209952;28;20198;-53
2023/10/04 09:40:59;;;;;;;7.90;2.80;;;17.10;99.90;;;;;;5214780;28;20891;-51
2023/10/04 09:43:37;;;;;;;4.63;2.17;;;17.20;99.90;;;;;;5214924;28;20469;-54
2023/10/04 09:46:10;;;;;;;69.73;7.93;;;17.40;99.90;;;;;;5212717;28;20182;-51
2023/10/04 09:48:44;;;;;;;3.90;2.30;;;17.70;99.90;;;;;;5215087;28;20861;-52
2023/10/04 09:51:16;;;;;;;5.40;2.60;;;17.50;99.90;;;;;;5213471;28;20465;-52
2023/10/04 09:53:47;;;;;;;8.67;2.63;;;17.50;99.90;;;;;;5212731;28;20969;-52
2023/10/04 09:56:19;;;;;;;9.70;2.77;;;17.70;99.90;;;;;;5213643;28;20859;-51
2023/10/04 09:58:53;;;;;;;6.93;2.53;;;17.70;99.90;;;;;;5215634;28;20274;-52
2023/10/04 10:01:28;;;;;;;9.47;4.03;;;17.70;99.90;;;;;;5217590;28;20461;-51
2023/10/04 10:03:59;;;;;;;12.23;3.07;;;17.70;99.90;;;;;;5226347;28;20694;-52
2023/10/04 10:06:36;;;;;;;10.63;3.10;;;17.70;99.90;;;;;;5216794;28;20425;-54
2023/10/04 10:09:11;;;;;;;6.10;3.67;;;17.80;99.90;;;;;;5217008;28;20438;-55
2023/10/04 10:11:45;;;;;;;14.60;3.77;;;17.80;99.90;;;;;;5214498;28;20512;-53
2023/10/04 10:14:15;;;;;;;12.73;3.03;;;17.60;99.90;;;;;;5231140;28;20513;-55
2023/10/04 10:16:47;;;;;;;10.73;2.53;;;17.50;99.90;;;;;;5211308;28;20518;-53
2023/10/04 10:19:18;;;;;;;10.63;5.10;;;17.40;99.90;;;;;;5214323;28;20710;-51
2023/10/04 10:22:18;;;;;;;5.30;2.60;;;17.40;99.90;;;;;;5214164;28;20548;-52
2023/10/04 10:24:55;;;;;;;2.90;2.20;;;17.50;99.90;;;;;;5221382;28;20953;-51
2023/10/04 10:27:31;;;;;;;8.20;3.23;;;17.40;99.90;;;;;;5215254;28;20936;-52
2023/10/04 10:30:07;;;;;;;12.07;4.03;;;17.40;99.90;;;;;;5211843;28;20436;-51
2023/10/04 10:32:54;;;;;;;9.73;5.50;;;17.30;99.90;;;;;;5213933;28;20933;-52
2023/10/04 10:35:57;;;;;;;14.73;7.97;;;17.20;99.90;;;;;;5235665;28;20492;-51
2023/10/04 10:38:39;;;;;;;13.57;7.80;;;17.10;99.90;;;;;;5213147;28;20546;-52
2023/10/04 10:41:28;;;;;;;16.73;5.90;;;17.20;99.90;;;;;;5212369;28;20452;-55
2023/10/04 10:44:16;;;;;;;39.60;10.50;;;17.30;99.90;;;;;;5212053;28;20460;-53
2023/10/04 10:47:07;;;;;;;26.27;13.23;;;17.40;99.90;;;;;;5214296;28;20441;-51
2023/10/04 10:49:40;;;;;;;10.33;3.30;;;17.40;99.90;;;;;;5226095;28;20506;-50
2023/10/04 10:52:38;;;;;;;7.83;3.10;;;17.40;99.90;;;;;;5211805;28;20453;-51
2023/10/04 10:55:18;;;;;;;5.93;3.00;;;17.20;99.90;;;;;;5228260;28;20891;-51
2023/10/04 10:57:50;;;;;;;18.90;3.13;;;17.00;99.90;;;;;;5215996;28;20429;-50
2023/10/04 11:02:54;;;;;;;5.30;2.70;;;17.00;99.90;;;;;;5195847;28;20474;-53
2023/10/04 11:05:26;;;;;;;14.57;3.30;;;17.10;99.90;;;;;;5201519;28;20430;-51
2023/10/04 11:07:57;;;;;;;2.57;2.20;;;17.30;99.90;;;;;;5203390;28;20183;-49
2023/10/04 11:10:31;;;;;;;9.90;4.87;;;17.40;99.90;;;;;;5200664;28;20469;-51
2023/10/04 11:13:08;;;;;;;9.67;4.97;;;17.50;99.90;;;;;;5203374;28;20418;-48
2023/10/04 11:15:41;;;;;;;19.07;5.47;;;17.50;99.90;;;;;;5200895;28;20561;-50
2023/10/04 11:18:14;;;;;;;7.83;4.80;;;17.80;99.90;;;;;;5205849;28;20469;-49
2023/10/04 11:20:45;;;;;;;12.13;3.73;;;17.90;99.90;;;;;;5204170;28;20536;-50
2023/10/04 11:23:16;;;;;;;12.47;3.23;;;18.00;99.90;;;;;;5204961;28;20885;-49
2023/10/04 11:25:47;;;;;;;5.80;2.90;;;17.60;99.90;;;;;;5203199;28;20438;-50
2023/10/04 11:28:18;;;;;;;20.60;3.97;;;17.60;99.90;;;;;;5197444;28;20200;-48
2023/10/04 11:30:49;;;;;;;6.20;2.43;;;17.50;99.90;;;;;;5204680;28;20207;-50
2023/10/04 11:33:20;;;;;;;4.50;2.40;;;17.40;99.90;;;;;;5204171;28;20976;-49
2023/10/04 11:35:51;;;;;;;11.40;3.27;;;17.20;99.90;;;;;;5202615;28;20461;-49
2023/10/04 11:38:27;;;;;;;11.70;3.00;;;17.20;99.90;;;;;;5204616;28;20191;-49
2023/10/04 11:40:58;;;;;;;5.60;2.73;;;17.20;99.90;;;;;;5203146;28;20460;-49
2023/10/04 11:43:29;;;;;;;6.57;2.63;;;17.20;99.90;;;;;;5220135;28;20529;-51
2023/10/04 11:46:03;;;;;;;9.43;3.20;;;17.20;99.90;;;;;;5201797;28;20864;-49
2023/10/04 11:48:34;;;;;;;9.73;2.80;;;17.10;99.90;;;;;;5201868;28;20180;-50
2023/10/04 11:51:06;;;;;;;7.63;2.33;;;17.20;99.90;;;;;;5202434;28;20451;-49
2023/10/04 11:53:39;;;;;;;8.67;2.87;;;17.20;99.90;;;;;;5219464;28;20557;-48
2023/10/04 11:56:10;;;;;;;11.00;4.87;;;17.00;99.90;;;;;;5218000;28;20885;-49
2023/10/04 11:58:48;;;;;;;10.63;3.43;;;17.00;99.90;;;;;;5189890;28;20440;-50
2023/10/04 12:01:20;;;;;;;6.43;3.20;;;17.00;99.90;;;;;;5207134;28;20461;-48
2023/10/04 12:03:53;;;;;;;30.07;10.07;;;17.10;99.90;;;;;;5221769;28;20445;-50
2023/10/04 12:06:24;;;;;;;18.33;9.13;;;17.10;99.90;;;;;;5219723;28;20466;-49
2023/10/04 12:08:56;;;;;;;20.17;6.70;;;17.10;99.90;;;;;;5205747;28;20791;-48
2023/10/04 12:11:33;;;;;;;10.13;3.90;;;17.00;99.90;;;;;;5207163;28;20218;-50
2023/10/04 12:14:06;;;;;;;3.50;2.90;;;16.80;99.90;;;;;;5203577;28;20936;-48
2023/10/04 12:16:41;;;;;;;8.60;2.30;;;16.60;99.90;;;;;;5203895;28;20441;-49
2023/10/04 12:19:12;;;;;;;11.53;3.00;;;16.50;99.90;;;;;;5206986;28;20430;-49
2023/10/04 12:21:43;;;;;;;16.57;3.37;;;16.50;99.90;;;;;;5220776;28;20447;-50
2023/10/04 12:24:14;;;;;;;6.00;2.90;;;16.60;99.90;;;;;;5202425;28;20210;-49
2023/10/04 12:26:45;;;;;;;7.57;2.50;;;16.60;99.90;;;;;;5206201;28;20456;-50
2023/10/04 12:29:16;;;;;;;6.97;3.80;;;16.70;99.90;;;;;;5204733;28;20442;-50
2023/10/04 12:31:47;;;;;;;3.63;2.73;;;16.80;99.90;;;;;;5204336;28;20200;-49
2023/10/04 12:34:18;;;;;;;6.70;3.93;;;16.90;99.90;;;;;;5222716;28;20207;-50
2023/10/04 12:36:48;;;;;;;4.27;2.20;;;16.80;99.90;;;;;;5206553;28;20180;-49
2023/10/04 12:39:21;;;;;;;16.33;3.30;;;16.90;99.90;;;;;;5203077;28;20183;-51
2023/10/04 12:41:52;;;;;;;5.00;3.00;;;16.90;99.90;;;;;;5208275;28;20191;-50
2023/10/04 12:44:23;;;;;;;17.67;7.33;;;17.00;99.90;;;;;;5206863;28;20897;-51
2023/10/04 12:46:54;;;;;;;23.60;14.33;;;17.10;99.90;;;;;;5220470;28;20442;-49
2023/10/04 12:49:26;;;;;;;9.13;5.40;;;17.00;99.90;;;;;;5204713;28;20187;-49
2023/10/04 12:51:56;;;;;;;13.50;4.63;;;17.00;99.90;;;;;;5205834;28;20215;-51
2023/10/04 12:54:28;;;;;;;21.97;9.43;;;16.90;99.90;;;;;;5204218;28;20462;-50
2023/10/04 12:56:59;;;;;;;10.03;4.80;;;16.70;99.90;;;;;;5206796;28;20171;-49
2023/10/04 12:59:30;;;;;;;48.50;19.80;;;16.70;99.90;;;;;;5218826;28;20434;-49
2023/10/04 13:02:00;;;;;;;22.70;8.37;;;16.70;99.90;;;;;;5205911;28;20211;-51
2023/10/04 13:04:31;;;;;;;16.00;4.03;;;16.60;99.90;;;;;;5203665;28;20187;-49
2023/10/04 13:07:02;;;;;;;12.17;2.80;;;16.70;99.90;;;;;;5220381;28;20200;-50
2023/10/04 13:09:33;;;;;;;9.13;2.93;;;16.70;99.90;;;;;;5204354;28;20274;-49
2023/10/04 13:12:04;;;;;;;4.90;3.47;;;16.60;99.90;;;;;;5200774;28;20203;-49
2023/10/04 13:14:34;;;;;;;4.23;2.67;;;16.70;99.90;;;;;;5207059;28;20466;-50
2023/10/04 13:17:06;;;;;;;16.00;2.83;;;16.70;99.90;;;;;;5209515;28;20175;-49
2023/10/04 13:19:36;;;;;;;4.10;2.67;;;16.80;99.90;;;;;;5206977;28;20538;-49